Time;durP1;ratioP1;P1;durP2;ratioP2;P2;SDS_P1;SDS_P2;PMS_P1;PMS_P2;Temp;Humidity;BMP_temperature;BMP_pressure;BME280_temperature;BME280_humidity;BME280_pressure;Samples;Min_cycle;Max_cycle;Signal;HPM_P1;HPM_P2
2022/06/25 00:01:08;;;;;;;;;3.75;1.00;;;;;19.99;55.33;100703.72;6272777;22;46213;-86
2022/06/25 00:03:33;;;;;;;;;1.25;1.00;;;;;19.97;55.51;100700.34;6220124;22;45502;-86
2022/06/25 00:05:59;;;;;;;;;3.00;1.00;;;;;19.90;55.69;100694.63;6219576;22;45976;-86
2022/06/25 00:08:24;;;;;;;;;2.00;1.00;;;;;19.84;56.34;100687.97;6245794;22;45324;-87
2022/06/25 00:10:52;;;;;;;;;2.00;0.25;;;;;19.82;56.54;100678.47;6246348;22;53326;-86
2022/06/25 00:13:18;;;;;;;;;2.00;0.00;;;;;19.85;55.83;100684.38;6245792;22;56168;-86
2022/06/25 00:15:46;;;;;;;;;1.00;1.00;;;;;19.86;55.78;100686.06;6272705;22;45224;-86
2022/06/25 00:18:14;;;;;;;;;2.00;0.25;;;;;19.83;55.90;100686.28;6248013;22;45425;-87
2022/06/25 00:20:40;;;;;;;;;2.00;1.00;;;;;19.82;56.03;100686.41;6273709;22;45270;-86
2022/06/25 00:23:05;;;;;;;;;2.00;1.00;;;;;19.82;56.32;100678.47;6246969;22;45231;-86
2022/06/25 00:25:30;;;;;;;;;1.75;1.75;;;;;19.81;56.06;100685.53;6274786;22;45349;-86
2022/06/25 00:27:56;;;;;;;;;1.00;1.00;;;;;19.81;56.17;100680.25;6271983;22;59758;-86
2022/06/25 00:30:21;;;;;;;;;1.25;1.25;;;;;19.81;56.20;100680.25;6246888;22;46743;-87
2022/06/25 00:32:47;;;;;;;;;1.00;1.00;;;;;19.80;56.25;100683.88;6273891;22;45444;-86
2022/06/25 00:35:15;;;;;;;;;0.50;0.50;;;;;19.80;56.41;100689.16;6247684;22;45084;-87
2022/06/25 00:37:40;;;;;;;;;1.75;1.00;;;;;19.77;56.13;100684.06;6247428;22;45327;-86
2022/06/25 00:40:07;;;;;;;;;1.00;1.00;;;;;19.75;56.54;100682.50;6221552;22;47180;-86
2022/06/25 00:42:33;;;;;;;;;0.75;0.75;;;;;19.75;56.64;100675.41;6277199;22;45659;-86
2022/06/25 00:44:58;;;;;;;;;1.75;1.25;;;;;19.76;56.64;100685.03;6246892;22;45362;-86
2022/06/25 00:47:23;;;;;;;;;1.00;1.00;;;;;19.75;56.26;100683.31;6274655;22;45250;-86
2022/06/25 00:49:49;;;;;;;;;1.50;1.00;;;;;19.72;56.55;100684.38;6246955;22;46163;-87
2022/06/25 00:52:17;;;;;;;;;1.50;1.50;;;;;19.73;56.63;100690.50;6246266;22;45333;-87
2022/06/25 00:54:48;;;;;;;;;2.75;1.50;;;;;19.71;56.71;100695.03;6274424;22;45218;-87
2022/06/25 00:57:18;;;;;;;;;1.00;1.00;;;;;19.70;56.72;100695.97;6247104;22;45348;-87
2022/06/25 00:59:48;;;;;;;;;2.75;1.00;;;;;19.69;57.36;100686.38;6275288;22;45682;-86
2022/06/25 01:02:16;;;;;;;;;2.50;1.00;;;;;19.68;57.15;100688.13;6246974;22;45600;-86
2022/06/25 01:04:45;;;;;;;;;1.25;1.25;;;;;19.65;57.52;100690.13;6246544;22;45299;-87
2022/06/25 01:07:10;;;;;;;;;1.50;1.50;;;;;19.66;57.77;100702.41;6270635;22;45372;-85
2022/06/25 01:09:39;;;;;;;;;1.00;1.00;;;;;19.67;58.32;100701.47;6245504;22;48027;-87
2022/06/25 01:12:04;;;;;;;;;1.25;1.25;;;;;19.65;58.44;100711.25;6245595;22;45309;-87
2022/06/25 01:14:30;;;;;;;;;1.00;1.00;;;;;19.62;58.01;100704.41;6270973;22;45263;-87
2022/06/25 01:16:55;;;;;;;;;1.75;1.75;;;;;19.59;58.12;100694.03;6245105;22;45499;-86
2022/06/25 01:19:21;;;;;;;;;5.00;0.00;;;;;19.57;58.43;100697.75;6218595;22;55683;-86
2022/06/25 01:21:49;;;;;;;;;2.00;1.00;;;;;19.55;58.29;100700.47;6219222;22;45245;-88
2022/06/25 01:24:14;;;;;;;;;1.75;1.75;;;;;19.53;58.48;100695.28;6246144;22;45255;-87
2022/06/25 01:26:40;;;;;;;;;3.75;1.50;;;;;19.51;58.44;100705.13;6244367;22;45253;-87
2022/06/25 01:29:06;;;;;;;;;0.00;0.00;;;;;19.54;58.31;100698.81;6245044;22;45363;-87
2022/06/25 01:31:32;;;;;;;;;1.00;1.00;;;;;19.56;57.88;100694.25;6245064;22;45603;-87
2022/06/25 01:34:00;;;;;;;;;4.00;1.00;;;;;19.57;58.37;100700.38;6248166;22;45343;-86
2022/06/25 01:36:28;;;;;;;;;3.25;1.00;;;;;19.58;58.52;100694.16;6273630;22;45415;-87
2022/06/25 01:38:54;;;;;;;;;2.00;2.00;;;;;19.59;58.17;100694.03;6248050;22;45370;-86
2022/06/25 01:41:21;;;;;;;;;1.75;1.75;;;;;19.61;58.47;100697.41;6245010;22;64231;-87
2022/06/25 01:43:47;;;;;;;;;3.00;3.00;;;;;19.61;57.93;100696.56;6246017;22;45378;-87
2022/06/25 01:46:13;;;;;;;;;2.00;1.50;;;;;19.61;58.10;100697.41;6244313;22;49549;-86
2022/06/25 01:48:40;;;;;;;;;1.50;1.50;;;;;19.60;58.25;100692.25;6271944;22;46307;-87
2022/06/25 01:51:06;;;;;;;;;1.50;1.25;;;;;19.60;58.59;100697.53;6245068;22;45894;-87
2022/06/25 01:53:31;;;;;;;;;2.00;2.00;;;;;19.58;58.44;100694.16;6218859;22;45169;-87
2022/06/25 01:55:57;;;;;;;;;2.50;2.50;;;;;19.54;58.61;100704.09;6244906;22;45421;-87
2022/06/25 01:58:30;;;;;;;;;3.00;2.75;;;;;19.48;59.34;100705.34;6244408;22;46782;-87
2022/06/25 02:00:55;;;;;;;;;3.00;2.00;;;;;19.47;59.78;100708.06;6271645;22;45587;-87
2022/06/25 02:03:21;;;;;;;;;2.75;1.00;;;;;19.43;59.12;100696.03;6244698;22;45285;-86
2022/06/25 02:05:58;;;;;;;;;1.25;1.25;;;;;19.38;59.56;100706.06;6209805;22;1451274;-86
2022/06/25 02:08:33;;;;;;;;;2.00;2.00;;;;;19.33;60.02;100704.56;6248537;22;45235;-87
2022/06/25 02:11:00;;;;;;;;;3.75;1.25;;;;;19.27;60.36;100706.75;6246762;22;45669;-87
2022/06/25 02:13:34;;;;;;;;;3.00;2.00;;;;;19.25;60.72;100709.50;6275405;22;45424;-88
2022/06/25 02:16:01;;;;;;;;;2.75;2.00;;;;;19.22;60.77;100708.84;6252699;22;45178;-87
2022/06/25 02:18:27;;;;;;;;;5.25;2.25;;;;;19.14;61.16;100720.75;6250730;22;45310;-88
2022/06/25 02:20:55;;;;;;;;;1.50;1.00;;;;;19.09;61.37;100714.06;6221082;22;45613;-87
2022/06/25 02:23:21;;;;;;;;;1.75;1.75;;;;;19.05;61.53;100715.22;6246600;22;45300;-87
2022/06/25 02:25:47;;;;;;;;;1.75;1.00;;;;;19.02;61.97;100716.28;6246714;22;45399;-87
2022/06/25 02:28:13;;;;;;;;;5.50;1.75;;;;;18.98;61.91;100714.78;6246411;22;47912;-87
2022/06/25 02:30:39;;;;;;;;;3.25;1.00;;;;;18.95;62.72;100707.06;6273647;22;45318;-86
2022/06/25 02:33:15;;;;;;;;;2.50;0.00;;;;;18.91;63.33;100713.50;6246129;22;45434;-88
2022/06/25 02:35:44;;;;;;;;;1.50;1.50;;;;;18.76;64.57;100713.47;6246543;22;45530;-87
2022/06/25 02:38:10;;;;;;;;;3.25;2.00;;;;;18.68;64.84;100712.28;6246055;22;47098;-86
2022/06/25 02:40:36;;;;;;;;;3.75;1.00;;;;;18.57;66.18;100724.34;6220552;22;46018;-86
2022/06/25 02:43:04;;;;;;;;;2.00;2.00;;;;;18.49;66.48;100717.84;6273993;22;45297;-87
2022/06/25 02:45:29;;;;;;;;;2.75;1.50;;;;;18.34;67.46;100717.84;6246833;22;45500;-87
2022/06/25 02:47:58;;;;;;;;;4.00;3.00;;;;;18.23;67.43;100711.56;6271843;22;48240;-86
2022/06/25 02:50:24;;;;;;;;;3.00;3.00;;;;;18.17;68.09;100713.63;6246209;22;45710;-87
2022/06/25 02:53:07;;;;;;;;;3.00;2.00;;;;;18.16;68.64;100721.63;6245928;22;45318;-87
2022/06/25 03:01:02;;;;;;;;;0.00;0.00;;;;;18.25;67.08;100713.16;6250823;22;45308;-87
2022/06/25 03:03:27;;;;;;;;;2.50;2.00;;;;;18.28;67.61;100714.78;6246536;22;45283;-87
2022/06/25 03:05:56;;;;;;;;;2.00;2.00;;;;;18.29;67.19;100712.03;6246270;22;45457;-87
2022/06/25 03:08:29;;;;;;;;;2.00;1.00;;;;;18.33;67.26;100713.56;6245774;22;45423;-87
2022/06/25 03:10:54;;;;;;;;;1.50;1.50;;;;;18.36;67.25;100723.88;6248307;22;45387;-87
2022/06/25 03:13:22;;;;;;;;;2.00;2.00;;;;;18.36;67.22;100708.06;6273675;22;45330;-87
2022/06/25 03:15:47;;;;;;;;;2.00;2.00;;;;;18.38;66.58;100710.63;6246988;22;45279;-86
2022/06/25 03:18:13;;;;;;;;;1.00;1.00;;;;;18.43;66.55;100711.19;6246375;22;45412;-85
2022/06/25 03:20:38;;;;;;;;;3.00;3.00;;;;;18.47;66.64;100709.19;6220335;22;45432;-87
2022/06/25 03:23:04;;;;;;;;;1.50;1.50;;;;;18.48;65.97;100713.53;6246169;22;45506;-85
2022/06/25 03:25:37;;;;;;;;;3.25;2.00;;;;;18.47;65.91;100712.69;6246676;22;45475;-87
2022/06/25 03:28:02;;;;;;;;;1.50;1.50;;;;;18.51;65.38;100718.59;6247705;22;45238;-86
2022/06/25 03:30:27;;;;;;;;;1.00;1.00;;;;;18.50;65.09;100720.41;6272869;22;45103;-87
2022/06/25 03:32:53;;;;;;;;;4.00;0.50;;;;;18.46;65.14;100718.03;6220850;22;45294;-88
2022/06/25 03:35:21;;;;;;;;;1.75;1.00;;;;;18.44;65.30;100712.84;6220337;22;45494;-87
2022/06/25 03:37:46;;;;;;;;;0.00;0.00;;;;;18.48;64.55;100724.94;6245891;22;46981;-88
2022/06/25 03:40:12;;;;;;;;;1.00;1.00;;;;;18.48;64.79;100722.28;6245762;22;45338;-87
2022/06/25 03:42:37;;;;;;;;;0.00;0.00;;;;;18.47;64.50;100719.75;6220250;22;45215;-87
2022/06/25 03:45:03;;;;;;;;;1.50;0.00;;;;;18.43;64.52;100720.88;6247458;22;45624;-87
2022/06/25 03:47:28;;;;;;;;;0.75;0.00;;;;;18.42;64.72;100727.09;6247490;22;47204;-87
2022/06/25 03:49:56;;;;;;;;;1.50;0.00;;;;;18.43;64.68;100732.25;6247128;22;45376;-87
2022/06/25 03:52:31;;;;;;;;;;;;;;;;;;;;;
2022/06/25 03:55:18;;;;;;;;;1.00;1.00;;;;;18.46;64.27;100737.34;6271484;22;70304;-89
2022/06/25 03:57:43;;;;;;;;;1.00;0.00;;;;;18.49;64.06;100739.78;6245865;22;47661;-89
2022/06/25 04:00:09;;;;;;;;;3.00;0.00;;;;;18.50;64.36;100730.13;6247378;22;45732;-88
2022/06/25 04:02:36;;;;;;;;;0.00;0.00;;;;;18.48;64.42;100729.31;6248121;22;45238;-89
2022/06/25 04:05:02;;;;;;;;;0.50;0.50;;;;;18.51;64.42;100726.50;6247935;22;45363;-88
2022/06/25 04:07:28;;;;;;;;;2.00;0.25;;;;;18.52;64.09;100726.41;6274559;22;46215;-91
2022/06/25 04:10:06;;;;;;;;;;;;;;;;;;;;;
2022/06/25 04:12:42;;;;;;;;;;;;;;;;;;;;;
2022/06/25 04:15:11;;;;;;;;;0.50;0.00;;;;;18.54;63.96;100739.50;6249708;22;68847;-89
2022/06/25 04:18:07;;;;;;;;;;;;;;;;;;;;;
2022/06/25 04:20:37;;;;;;;;;1.00;0.00;;;;;18.45;64.17;100743.56;6267719;22;72615;-88
2022/06/25 04:23:04;;;;;;;;;0.00;0.00;;;;;18.45;64.65;100750.63;6273745;22;45310;-88
2022/06/25 04:25:30;;;;;;;;;0.50;0.00;;;;;18.45;64.29;100745.34;6247691;22;45359;-87
2022/06/25 04:30:41;;;;;;;;;0.00;0.00;;;;;18.47;64.93;100751.38;6251414;22;45557;-86
2022/06/25 04:33:14;;;;;;;;;2.00;0.00;;;;;18.50;64.23;100757.31;6247638;22;45377;-86
2022/06/25 04:35:39;;;;;;;;;0.00;0.00;;;;;18.53;64.43;100756.25;6274185;22;45381;-86
2022/06/25 04:38:05;;;;;;;;;1.00;0.00;;;;;18.54;64.32;100758.81;6272639;22;48062;-86
2022/06/25 04:40:36;;;;;;;;;1.00;1.00;;;;;18.56;64.55;100764.81;6246753;22;45481;-87
2022/06/25 04:43:04;;;;;;;;;1.75;0.00;;;;;18.58;64.31;100767.38;6247957;22;45398;-88
2022/06/25 04:45:30;;;;;;;;;1.25;0.75;;;;;18.59;64.23;100769.06;6247993;22;45271;-86
2022/06/25 04:48:10;;;;;;;;;0.00;0.00;;;;;18.61;64.19;100775.09;6246248;22;51736;-87
2022/06/25 04:50:53;;;;;;;;;0.00;0.00;;;;;18.60;63.75;100772.56;6274281;22;45278;-88
2022/06/25 04:53:18;;;;;;;;;0.00;0.00;;;;;18.60;64.13;100770.75;6247196;22;45362;-87
2022/06/25 04:55:44;;;;;;;;;0.50;0.50;;;;;18.63;63.94;100775.84;6247087;22;45208;-88
2022/06/25 04:58:12;;;;;;;;;1.00;1.00;;;;;18.63;64.00;100773.22;6246944;22;46585;-87
2022/06/25 05:00:40;;;;;;;;;0.00;0.00;;;;;18.65;63.82;100784.50;6247447;22;45343;-87
2022/06/25 05:03:06;;;;;;;;;0.00;0.00;;;;;18.65;64.03;100776.59;6247130;22;45271;-87
2022/06/25 05:05:31;;;;;;;;;0.25;0.25;;;;;18.66;64.15;100787.97;6216416;22;45557;-87
2022/06/25 05:07:56;;;;;;;;;0.25;0.00;;;;;18.70;63.94;100784.19;6243275;22;45228;-86
2022/06/25 05:10:22;;;;;;;;;1.00;1.00;;;;;18.76;63.18;100786.47;6243281;22;53863;-87
2022/06/25 05:15:31;;;;;;;;;0.25;0.00;;;;;18.91;63.32;100803.16;6220830;22;45409;-86
2022/06/25 05:17:57;;;;;;;;;0.00;0.00;;;;;18.96;62.14;100806.34;6242410;22;51201;-87
2022/06/25 05:20:22;;;;;;;;;1.00;1.00;;;;;18.98;62.08;100806.25;6215981;22;45311;-87
2022/06/25 05:22:48;;;;;;;;;0.75;0.75;;;;;19.05;61.73;100823.38;6216515;22;45235;-88
2022/06/25 05:25:13;;;;;;;;;1.50;0.00;;;;;19.09;61.19;100815.19;6243420;22;45412;-88
2022/06/25 05:27:38;;;;;;;;;1.75;0.25;;;;;19.20;61.31;100821.56;6215335;22;57725;-86
2022/06/25 05:30:05;;;;;;;;;1.00;1.00;;;;;19.23;60.82;100818.75;6241724;22;45650;-87
2022/06/25 05:32:31;;;;;;;;;1.00;1.00;;;;;19.24;60.05;100812.50;6242963;22;45329;-88
2022/06/25 05:34:57;;;;;;;;;2.00;1.00;;;;;19.27;59.37;100813.16;6216552;22;45362;-87
2022/06/25 05:37:23;;;;;;;;;0.50;0.00;;;;;19.30;59.06;100815.59;6243427;22;46397;-87
2022/06/25 05:39:49;;;;;;;;;1.00;1.00;;;;;19.30;58.28;100822.69;6216591;22;45478;-88
2022/06/25 05:42:14;;;;;;;;;1.00;1.00;;;;;19.23;57.88;100834.56;6217047;22;45160;-89
2022/06/25 05:44:39;;;;;;;;;0.75;0.75;;;;;19.20;57.79;100826.84;6216751;22;45238;-85
2022/06/25 05:47:05;;;;;;;;;0.00;0.00;;;;;19.19;57.63;100826.00;6215694;22;65746;-88
2022/06/25 05:49:30;;;;;;;;;0.00;0.00;;;;;19.21;57.43;100821.47;6243525;22;45211;-87
2022/06/25 05:51:55;;;;;;;;;0.50;0.00;;;;;19.26;58.53;100815.88;6217277;22;45292;-88
2022/06/25 05:54:21;;;;;;;;;3.75;1.00;;;;;19.35;57.45;100817.94;6215991;22;45377;-84
2022/06/25 05:56:46;;;;;;;;;1.00;1.00;;;;;19.39;57.18;100819.44;6242860;22;45325;-84
2022/06/25 05:59:12;;;;;;;;;1.00;1.00;;;;;19.42;57.71;100813.13;6241843;22;69065;-83
2022/06/25 06:01:37;;;;;;;;;2.25;1.00;;;;;19.44;57.37;100811.22;6242649;22;45308;-83
2022/06/25 06:04:04;;;;;;;;;1.75;1.00;;;;;19.50;56.60;100824.88;6245359;22;45460;-83
2022/06/25 06:06:30;;;;;;;;;2.00;1.00;;;;;19.51;57.23;100831.84;6245766;22;47160;-82
2022/06/25 06:08:55;;;;;;;;;0.00;0.00;;;;;19.53;57.07;100823.81;6271535;22;45283;-84
2022/06/25 06:11:21;;;;;;;;;1.00;1.00;;;;;19.49;55.88;100815.25;6272896;22;58603;-84
2022/06/25 06:13:46;;;;;;;;;2.25;1.25;;;;;19.49;57.09;100817.88;6274409;22;45258;-84
2022/06/25 06:16:12;;;;;;;;;3.00;1.00;;;;;19.55;56.38;100821.91;6219751;22;68779;-83
2022/06/25 06:18:37;;;;;;;;;1.00;1.00;;;;;19.56;56.46;100828.03;6271928;22;45270;-83
2022/06/25 06:21:02;;;;;;;;;1.00;1.00;;;;;19.59;56.11;100828.69;6270742;22;68753;-84
2022/06/25 06:23:28;;;;;;;;;3.00;0.25;;;;;19.65;56.60;100824.78;6220533;22;51293;-84
2022/06/25 06:25:53;;;;;;;;;1.75;1.00;;;;;19.73;56.04;100830.47;6274069;22;46079;-84
2022/06/25 06:28:18;;;;;;;;;1.50;1.50;;;;;19.80;55.32;100828.25;6272950;22;62183;-83
2022/06/25 06:30:45;;;;;;;;;1.00;1.00;;;;;19.88;55.55;100832.09;6245986;22;55829;-83
2022/06/25 06:33:11;;;;;;;;;1.00;1.00;;;;;19.96;55.10;100830.72;6273577;22;45263;-84
2022/06/25 06:35:36;;;;;;;;;0.00;0.00;;;;;20.05;55.35;100830.13;6273383;22;70600;-84
2022/06/25 06:38:01;;;;;;;;;2.00;1.00;;;;;20.09;53.99;100827.16;6246943;22;65433;-83
2022/06/25 06:40:27;;;;;;;;;0.00;0.00;;;;;20.07;53.38;100833.50;6280897;22;45308;-84
2022/06/25 06:42:52;;;;;;;;;1.50;0.75;;;;;20.08;51.70;100837.84;6251028;22;63112;-84
2022/06/25 06:45:17;;;;;;;;;1.50;1.00;;;;;20.09;53.26;100845.66;6277856;22;69747;-84
2022/06/25 06:47:43;;;;;;;;;0.75;0.25;;;;;20.09;53.18;100839.53;6251416;22;53951;-83
2022/06/25 06:50:10;;;;;;;;;1.00;0.00;;;;;20.09;52.28;100836.88;6276466;22;61017;-83
2022/06/25 06:52:35;;;;;;;;;1.00;1.00;;;;;20.06;52.25;100829.19;6275761;22;45245;-83
2022/06/25 06:55:04;;;;;;;;;2.00;0.25;;;;;20.00;52.80;100840.13;6251715;22;45319;-85
2022/06/25 06:57:30;;;;;;;;;1.50;1.00;;;;;19.98;52.31;100842.88;6287157;22;45713;-83
2022/06/25 06:59:55;;;;;;;;;1.00;0.00;;;;;19.98;53.40;100831.47;6250519;22;45279;-84
2022/06/25 07:02:20;;;;;;;;;0.00;0.00;;;;;19.99;52.34;100841.09;6246814;22;45248;-84
2022/06/25 07:04:46;;;;;;;;;0.00;0.00;;;;;20.02;52.72;100831.19;6272570;22;70419;-84
2022/06/25 07:07:11;;;;;;;;;0.50;0.50;;;;;20.06;51.69;100835.31;6273864;22;45283;-84
2022/06/25 07:09:37;;;;;;;;;4.25;1.00;;;;;20.14;53.78;100834.78;6273752;22;45186;-85
2022/06/25 07:12:02;;;;;;;;;1.00;1.00;;;;;20.21;52.11;100830.78;6246176;22;45307;-84
2022/06/25 07:14:27;;;;;;;;;1.00;1.00;;;;;20.25;51.92;100834.91;6245672;22;45338;-85
2022/06/25 07:16:53;;;;;;;;;0.00;0.00;;;;;20.22;51.61;100850.13;6246260;22;45611;-84
2022/06/25 07:19:18;;;;;;;;;0.25;0.25;;;;;20.19;52.11;100851.19;6273884;22;45569;-84
2022/06/25 07:21:44;;;;;;;;;0.50;0.50;;;;;20.23;53.37;100847.38;6273040;22;62280;-86
2022/06/25 07:24:12;;;;;;;;;2.75;0.00;;;;;20.37;53.06;100848.22;6245979;22;58546;-86
2022/06/25 07:26:37;;;;;;;;;0.00;0.00;;;;;20.54;51.84;100847.94;6246032;22;45619;-83
2022/06/25 07:29:03;;;;;;;;;0.00;0.00;;;;;20.64;52.14;100846.34;6273145;22;45257;-83
2022/06/25 07:31:28;;;;;;;;;2.00;1.00;;;;;20.74;51.53;100851.84;6273995;22;45326;-84
2022/06/25 07:33:54;;;;;;;;;1.00;1.00;;;;;20.76;52.12;100849.94;6245825;22;45299;-84
2022/06/25 07:36:19;;;;;;;;;2.00;0.00;;;;;20.81;51.12;100847.81;6272092;22;64165;-84
2022/06/25 07:38:44;;;;;;;;;1.00;1.00;;;;;20.81;51.36;100854.91;6220357;22;45299;-84
2022/06/25 07:41:10;;;;;;;;;1.00;1.00;;;;;20.76;51.84;100857.03;6245490;22;45340;-87
2022/06/25 07:43:35;;;;;;;;;2.00;1.00;;;;;20.78;51.91;100863.06;6245049;22;47899;-87
2022/06/25 07:46:01;;;;;;;;;1.00;1.00;;;;;20.80;50.69;100863.78;6271096;22;48004;-83
2022/06/25 07:48:26;;;;;;;;;0.75;0.00;;;;;20.77;49.50;100864.03;6220131;22;45402;-86
2022/06/25 07:53:35;;;;;;;;;1.00;1.00;;;;;20.65;50.74;100861.28;6250355;22;45211;-88
2022/06/25 07:56:01;;;;;;;;;3.75;1.00;;;;;20.63;51.67;100862.31;6246588;22;45761;-87
2022/06/25 07:58:29;;;;;;;;;0.25;0.25;;;;;20.62;50.76;100869.44;6245931;22;45243;-91
2022/06/25 08:00:54;;;;;;;;;0.00;0.00;;;;;20.63;50.96;100881.69;6247885;22;45307;-86
2022/06/25 08:03:30;;;;;;;;;0.00;0.00;;;;;20.66;50.59;100875.34;6247300;22;46385;-90
2022/06/25 08:06:00;;;;;;;;;1.00;0.00;;;;;20.67;50.76;100880.53;6246602;22;45259;-90
2022/06/25 08:08:29;;;;;;;;;0.00;0.00;;;;;20.77;49.97;100879.91;6223166;22;45466;-94
2022/06/25 08:10:54;;;;;;;;;1.75;1.25;;;;;20.84;49.88;100881.16;6220753;22;45370;-88
2022/06/25 08:13:20;;;;;;;;;4.00;0.50;;;;;20.86;48.29;100881.91;6220355;22;47825;-84
2022/06/25 08:15:46;;;;;;;;;1.25;1.00;;;;;20.81;48.00;100884.84;6250046;22;45410;-90
2022/06/25 08:21:08;;;;;;;;;1.50;0.00;;;;;20.71;48.06;100881.16;6211552;22;45152;-90
2022/06/25 08:23:34;;;;;;;;;2.00;0.00;;;;;20.76;48.28;100878.19;6093163;23;46040;-85
2022/06/25 08:25:59;;;;;;;;;0.75;0.75;;;;;20.79;48.50;100880.63;6092914;23;45287;-85
2022/06/25 08:28:25;;;;;;;;;3.00;2.00;;;;;20.82;48.93;100885.69;6094229;23;45266;-86
2022/06/25 08:30:50;;;;;;;;;1.00;1.00;;;;;20.81;48.99;100889.31;6118809;23;45182;-85
2022/06/25 08:33:16;;;;;;;;;0.75;0.75;;;;;20.76;49.11;100889.59;6118997;23;46886;-85
2022/06/25 08:35:42;;;;;;;;;1.00;1.00;;;;;20.71;49.37;100889.09;6119284;23;49965;-85
2022/06/25 08:38:07;;;;;;;;;0.50;0.50;;;;;20.66;50.05;100892.06;6119504;23;45347;-84
2022/06/25 08:40:33;;;;;;;;;1.00;1.00;;;;;20.57;49.76;100905.88;6119625;23;45577;-85
2022/06/25 08:42:59;;;;;;;;;2.00;0.50;;;;;20.45;49.60;100898.81;6119103;23;45997;-84
2022/06/25 08:45:24;;;;;;;;;2.00;2.00;;;;;20.33;50.22;100904.91;6095296;23;45741;-84
2022/06/25 08:47:52;;;;;;;;;0.00;0.00;;;;;20.30;50.84;100903.31;6070398;23;45456;-85
2022/06/25 08:50:21;;;;;;;;;0.00;0.00;;;;;20.30;50.90;100898.88;6095069;23;45356;-85
2022/06/25 08:52:56;;;;;;;;;1.00;1.00;;;;;20.24;51.73;100895.78;6118991;23;46122;-85
2022/06/25 08:55:28;;;;;;;;;2.00;1.00;;;;;20.26;51.75;100899.16;6094796;23;45313;-85
2022/06/25 08:57:53;;;;;;;;;2.25;1.00;;;;;20.30;51.54;100898.88;6118596;23;45325;-85
2022/06/25 09:00:19;;;;;;;;;1.00;1.00;;;;;20.44;51.96;100903.22;6151767;22;68401;-86
2022/06/25 09:02:44;;;;;;;;;1.00;1.00;;;;;20.55;52.16;100904.31;6185274;22;45236;-85
2022/06/25 09:05:10;;;;;;;;;2.00;1.00;;;;;20.56;51.60;100911.25;6212516;22;51390;-86
2022/06/25 09:07:36;;;;;;;;;2.75;1.75;;;;;20.49;52.78;100910.84;6186003;22;45181;-88
2022/06/25 09:10:04;;;;;;;;;3.00;2.00;;;;;20.36;53.82;100910.84;6159926;22;45493;-88
2022/06/25 09:12:30;;;;;;;;;1.00;1.00;;;;;20.26;54.17;100910.63;6211764;22;47003;-88
2022/06/25 09:14:55;;;;;;;;;3.00;1.00;;;;;20.16;54.52;100914.81;6185666;22;45404;-86
2022/06/25 09:17:20;;;;;;;;;2.00;1.00;;;;;20.10;54.85;100913.41;6186110;22;45362;-86
2022/06/25 09:19:51;;;;;;;;;2.00;1.00;;;;;20.07;55.38;100910.97;6198906;22;61201;-86
2022/06/25 09:22:18;;;;;;;;;2.00;1.00;;;;;20.17;53.94;100899.78;6185145;22;47014;-86
2022/06/25 09:24:57;;;;;;;;;1.00;1.00;;;;;20.33;53.93;100895.16;6184856;22;45939;-88
2022/06/25 09:27:36;;;;;;;;;3.00;2.00;;;;;20.57;54.55;100897.09;6211951;22;45395;-88
2022/06/25 09:30:10;;;;;;;;;1.75;1.75;;;;;20.82;53.27;100894.50;6211719;22;45419;-87
2022/06/25 09:32:42;;;;;;;;;1.25;1.25;;;;;21.07;52.92;100890.13;6211912;22;46146;-87
2022/06/25 09:35:09;;;;;;;;;2.50;1.00;;;;;21.29;53.54;100876.22;6210551;22;45501;-88
2022/06/25 09:37:34;;;;;;;;;1.00;1.00;;;;;21.45;50.46;100890.06;6185022;22;45277;-89
2022/06/25 09:40:00;;;;;;;;;1.75;1.00;;;;;21.58;51.23;100884.72;6159059;22;67431;-88
2022/06/25 09:42:30;;;;;;;;;3.00;2.00;;;;;21.79;50.21;100890.25;6184713;22;45415;-89
2022/06/25 09:45:11;;;;;;;;;2.00;2.00;;;;;21.91;49.39;100883.19;6211226;22;45654;-88
2022/06/25 09:47:45;;;;;;;;;2.25;1.00;;;;;21.93;49.47;100875.97;6212183;22;45173;-90
2022/06/25 09:50:21;;;;;;;;;1.00;1.00;;;;;21.98;48.81;100879.13;6212275;22;48566;-92
2022/06/25 09:52:55;;;;;;;;;1.75;1.75;;;;;21.92;48.38;100886.69;6212043;22;45451;-90
2022/06/25 09:55:25;;;;;;;;;4.50;2.00;;;;;21.87;49.15;100883.53;6212101;22;45225;-87
2022/06/25 09:57:52;;;;;;;;;1.25;1.00;;;;;21.87;50.01;100880.88;6211998;22;45311;-88
2022/06/25 10:00:18;;;;;;;;;2.00;1.00;;;;;21.87;49.10;100889.66;6185199;22;45386;-88
2022/06/25 10:02:45;;;;;;;;;4.50;2.00;;;;;21.85;48.86;100891.59;6185287;22;46455;-88
2022/06/25 10:05:11;;;;;;;;;1.25;1.25;;;;;21.84;48.69;100890.75;6212702;22;45528;-87
2022/06/25 10:10:22;;;;;;;;;4.00;1.50;;;;;21.73;48.85;100900.44;6211417;22;45191;-87
2022/06/25 10:12:48;;;;;;;;;2.00;1.75;;;;;21.64;48.70;100899.31;6210739;22;45291;-87
2022/06/25 10:15:16;;;;;;;;;1.50;1.50;;;;;21.51;46.46;100898.50;6185258;22;45788;-89
2022/06/25 10:17:47;;;;;;;;;4.00;2.00;;;;;21.35;48.94;100894.28;6185568;22;45382;-88
2022/06/25 10:20:13;;;;;;;;;2.00;2.00;;;;;21.27;48.01;100894.84;6236967;22;45320;-86
2022/06/25 10:22:39;;;;;;;;;2.00;2.00;;;;;21.20;48.77;100890.09;6215225;22;46069;-87
2022/06/25 10:25:10;;;;;;;;;5.00;3.00;;;;;21.26;49.57;100892.31;6215241;22;45855;-87
2022/06/25 10:27:47;;;;;;;;;6.00;2.00;;;;;21.48;49.31;100885.50;6216087;22;45363;-88
2022/06/25 10:30:15;;;;;;;;;1.00;1.00;;;;;21.64;49.41;100876.31;6242602;22;45359;-88
2022/06/25 10:32:46;;;;;;;;;1.00;1.00;;;;;21.79;49.50;100877.00;6215459;22;48383;-87
2022/06/25 10:35:29;;;;;;;;;1.00;1.00;;;;;22.05;48.32;100868.91;6190260;22;45551;-88
2022/06/25 10:38:00;;;;;;;;;1.25;1.25;;;;;22.31;49.24;100872.25;6189177;22;45239;-88
2022/06/25 10:40:26;;;;;;;;;2.75;2.00;;;;;22.65;47.65;100867.00;6215361;22;45449;-88
2022/06/25 10:43:00;;;;;;;;;1.75;1.75;;;;;22.87;47.19;100868.81;6215344;22;46812;-88
2022/06/25 10:45:26;;;;;;;;;2.00;1.00;;;;;23.02;46.83;100869.44;6242317;22;45286;-88
2022/06/25 10:47:53;;;;;;;;;3.00;1.00;;;;;23.07;46.80;100871.72;6242652;22;45377;-88
2022/06/25 10:50:22;;;;;;;;;4.00;2.00;;;;;23.07;46.28;100875.25;6242126;22;45415;-88
2022/06/25 10:53:08;;;;;;;;;3.00;1.00;;;;;22.89;45.93;100876.66;6241927;22;46351;-88
2022/06/25 10:55:34;;;;;;;;;2.00;2.00;;;;;22.82;44.37;100881.59;6242451;22;45287;-88
2022/06/25 10:58:10;;;;;;;;;1.00;1.00;;;;;22.69;45.39;100875.56;6215293;22;45327;-88
2022/06/25 11:00:47;;;;;;;;;2.00;1.00;;;;;22.61;44.63;100877.00;6189960;22;45429;-87
2022/06/25 11:03:13;;;;;;;;;1.50;1.50;;;;;22.56;45.05;100876.50;6189973;22;47153;-88
2022/06/25 11:05:43;;;;;;;;;1.50;1.25;;;;;22.72;45.46;100881.50;6214978;22;45557;-87
2022/06/25 11:08:09;;;;;;;;;1.50;1.50;;;;;22.91;45.19;100872.91;6242716;22;45220;-87
2022/06/25 11:10:35;;;;;;;;;3.00;1.25;;;;;23.11;45.71;100878.50;6242423;22;45461;-87
2022/06/25 11:13:01;;;;;;;;;2.25;2.25;;;;;23.28;44.31;100883.31;6215687;22;45440;-87
2022/06/25 11:15:38;;;;;;;;;4.00;2.25;;;;;23.27;43.73;100883.41;6215105;22;45616;-88
2022/06/25 11:18:12;;;;;;;;;4.25;2.00;;;;;23.22;44.51;100883.81;6216406;22;45334;-88
2022/06/25 11:20:38;;;;;;;;;6.00;5.25;;;;;23.23;44.78;100887.28;6242844;22;45450;-88
2022/06/25 11:23:04;;;;;;;;;4.75;4.00;;;;;23.32;45.46;100876.78;6215288;22;46457;-87
2022/06/25 11:28:49;;;;;;;;;2.00;2.00;;;;;23.26;45.25;100890.56;6219845;22;45296;-88
2022/06/25 11:31:22;;;;;;;;;3.00;2.00;;;;;23.17;45.58;100892.13;6242503;22;45393;-89
2022/06/25 11:33:48;;;;;;;;;6.75;3.25;;;;;23.21;45.43;100889.22;6215034;22;46269;-87
2022/06/25 11:42:47;;;;;;;;;11.50;9.75;;;;;22.99;46.32;100893.53;6240641;22;45417;-92
2022/06/25 11:45:21;;;;;;;;;1.75;1.75;;;;;22.82;44.86;100886.91;6249355;22;45956;-92
2022/06/25 11:47:46;;;;;;;;;3.00;1.00;;;;;22.53;45.69;100889.16;6245030;22;45271;-90
2022/06/25 11:50:22;;;;;;;;;;;;;;;;;;;;;
2022/06/25 11:52:47;;;;;;;;;2.25;2.00;;;;;22.17;47.59;100902.44;6264483;22;70356;-89
2022/06/25 11:55:13;;;;;;;;;2.00;2.00;;;;;21.99;49.61;100893.19;6245383;22;49276;-89
2022/06/25 11:57:42;;;;;;;;;2.25;2.00;;;;;21.85;50.01;100897.72;6272529;22;45341;-89
2022/06/25 12:00:09;;;;;;;;;1.00;1.00;;;;;21.69;50.37;100891.88;6270326;22;45413;-89
2022/06/25 12:02:35;;;;;;;;;11.25;9.50;;;;;21.62;51.71;100898.59;6244591;22;45472;-89